Terminal Aerodrome Forecast
Issued by NWS Shreveport, LA

Home | Current Version | Previous Version | Text Only | Print | Product List | Glossary On
Versions: 1 2 3 4 5 6 7 8 9 10 11 12 13 14 15 16 17 18 19 20 21 22 23 24
000
FTUS44 KSHV 261415 AAB
TAFGGG
TAF AMD
KGGG 261415Z 2614/2712 00000KT P6SM FEW002
      TEMPO 2614/2615 5SM BR BKN002
     FM261500 20010KT P6SM SCT010
     FM270000 14009KT P6SM BKN050 BKN120
      TEMPO 2706/2709 P6SM -TSRA BKN050CB
     FM270900 09011KT 5SM -TSRA OVC007CB=

USA.gov is the U.S. government's official web portal to all federal, state and local government web resources and services.